Time;durP1;ratioP1;P1;durP2;ratioP2;P2;SDS_P1;SDS_P2;PMS_P1;PMS_P2;Temp;Humidity;BMP_temperature;BMP_pressure;BME280_temperature;BME280_humidity;BME280_pressure;Samples;Min_cycle;Max_cycle;Signal;HPM_P1;HPM_P2
2021/01/11 00:01:11;;;;;;;24.63;18.63;;;5.20;99.90;;;;;;4958203;28;20649;-63
2021/01/11 00:03:56;;;;;;;24.50;18.87;;;5.00;99.90;;;;;;4961438;28;21169;-66
2021/01/11 00:06:42;;;;;;;24.00;19.10;;;5.20;99.90;;;;;;4963493;28;20644;-66
2021/01/11 00:09:26;;;;;;;25.00;18.27;;;5.10;99.90;;;;;;4966896;28;20610;-67
2021/01/11 00:12:10;;;;;;;24.57;18.40;;;5.00;99.90;;;;;;4967004;28;20633;-66
2021/01/11 00:14:55;;;;;;;24.70;19.10;;;5.10;99.90;;;;;;4966645;28;21299;-66
2021/01/11 00:17:42;;;;;;;23.97;18.83;;;5.10;99.90;;;;;;4966751;28;20629;-66
2021/01/11 00:20:26;;;;;;;25.00;19.40;;;5.10;99.90;;;;;;4966008;28;20625;-66
2021/01/11 00:23:10;;;;;;;27.13;20.43;;;5.20;99.90;;;;;;4968861;28;20769;-66
2021/01/11 00:25:55;;;;;;;24.43;18.57;;;5.10;99.90;;;;;;4954369;28;20717;-66
2021/01/11 00:28:40;;;;;;;23.00;18.37;;;5.20;99.90;;;;;;4959830;28;20625;-66
2021/01/11 00:31:26;;;;;;;24.43;19.00;;;5.10;99.90;;;;;;4966663;28;23614;-65
2021/01/11 00:34:10;;;;;;;25.00;18.97;;;5.10;99.90;;;;;;4954938;28;21352;-66
2021/01/11 00:37:00;;;;;;;23.80;18.20;;;5.10;99.90;;;;;;4964387;28;20660;-64
2021/01/11 00:39:45;;;;;;;24.67;18.37;;;5.10;99.90;;;;;;4948848;28;20645;-65
2021/01/11 00:42:33;;;;;;;25.93;18.87;;;5.10;99.90;;;;;;4966369;28;20629;-66
2021/01/11 00:47:46;;;;;;;25.87;18.40;;;5.10;99.90;;;;;;4999883;28;21106;-71
2021/01/11 00:50:31;;;;;;;24.90;19.27;;;5.10;99.90;;;;;;4995008;28;20626;-71
2021/01/11 00:53:15;;;;;;;26.37;19.80;;;5.20;99.90;;;;;;4988342;28;20635;-71
2021/01/11 00:55:59;;;;;;;29.30;20.77;;;5.10;99.90;;;;;;5002755;28;20745;-71
2021/01/11 00:58:45;;;;;;;27.77;18.83;;;5.20;99.90;;;;;;4998814;28;20755;-71
2021/01/11 01:01:29;;;;;;;27.17;19.07;;;5.20;99.90;;;;;;5002118;28;20731;-71
2021/01/11 01:04:14;;;;;;;26.70;18.30;;;5.20;99.90;;;;;;4985525;28;20780;-71
2021/01/11 01:07:01;;;;;;;26.50;18.27;;;5.20;99.90;;;;;;4993103;28;20984;-71
2021/01/11 01:09:46;;;;;;;25.60;18.40;;;5.10;99.90;;;;;;5003706;28;20655;-71
2021/01/11 01:12:31;;;;;;;24.50;18.10;;;5.10;99.90;;;;;;4989864;28;20643;-71
2021/01/11 01:15:18;;;;;;;25.20;18.63;;;5.10;99.90;;;;;;5008448;28;20678;-71
2021/01/11 01:18:03;;;;;;;25.13;18.00;;;5.10;99.90;;;;;;4991390;28;21105;-71
2021/01/11 01:20:48;;;;;;;25.77;17.70;;;5.20;99.90;;;;;;5001131;28;20762;-71
2021/01/11 01:23:32;;;;;;;23.13;17.93;;;5.20;99.90;;;;;;4996178;28;21381;-71
2021/01/11 01:26:17;;;;;;;24.93;18.30;;;5.10;99.90;;;;;;5000061;28;20664;-71
2021/01/11 01:29:02;;;;;;;25.93;17.07;;;5.10;99.90;;;;;;5007500;28;20627;-71
2021/01/11 01:31:46;;;;;;;23.63;17.17;;;5.10;99.90;;;;;;5019908;28;20627;-71
2021/01/11 01:34:31;;;;;;;27.00;18.67;;;5.00;99.90;;;;;;5000911;28;21064;-71
2021/01/11 01:37:15;;;;;;;23.80;17.30;;;5.10;99.90;;;;;;4997247;28;20806;-71
2021/01/11 01:39:59;;;;;;;24.13;17.30;;;5.10;99.90;;;;;;5001850;28;20639;-71
2021/01/11 01:42:44;;;;;;;24.00;16.70;;;5.10;99.90;;;;;;4993694;28;20618;-71
2021/01/11 01:45:29;;;;;;;24.00;17.10;;;5.10;99.90;;;;;;4994567;28;20990;-71
2021/01/11 01:48:15;;;;;;;24.10;16.23;;;5.10;99.90;;;;;;5006329;28;21213;-71
2021/01/11 01:51:00;;;;;;;23.37;16.53;;;5.20;99.90;;;;;;4991057;28;21228;-71
2021/01/11 01:53:46;;;;;;;25.37;16.07;;;5.20;99.90;;;;;;5008748;28;20610;-71
2021/01/11 01:56:31;;;;;;;23.83;17.10;;;5.20;99.90;;;;;;5002731;28;20650;-71
2021/01/11 01:59:18;;;;;;;23.47;17.07;;;5.20;99.90;;;;;;5002385;28;20618;-71
2021/01/11 02:02:04;;;;;;;23.63;16.10;;;5.20;99.90;;;;;;4994705;28;20631;-71
2021/01/11 02:04:48;;;;;;;25.87;17.87;;;5.10;99.90;;;;;;5007558;28;20762;-71
2021/01/11 02:07:36;;;;;;;23.77;16.90;;;5.20;99.90;;;;;;4991267;28;20881;-71
2021/01/11 02:10:33;;;;;;;19.87;15.57;;;5.30;99.90;;;;;;5004712;28;20646;-71
2021/01/11 02:13:20;;;;;;;23.30;16.20;;;5.30;99.90;;;;;;4993730;28;20623;-71
2021/01/11 02:16:39;;;;;;;23.17;16.47;;;5.30;99.90;;;;;;4993301;28;21012;-71
2021/01/11 02:19:56;;;;;;;20.00;15.13;;;5.30;99.90;;;;;;4992793;28;20993;-71
2021/01/11 02:23:30;;;;;;;22.50;16.27;;;5.40;99.90;;;;;;4988653;28;20792;-71
2021/01/11 02:26:36;;;;;;;24.97;17.23;;;5.50;99.90;;;;;;4997385;28;20658;-71
2021/01/11 02:29:33;;;;;;;22.80;16.73;;;5.50;99.90;;;;;;4996666;28;20619;-71
2021/01/11 02:32:21;;;;;;;27.17;19.00;;;5.40;99.90;;;;;;4988400;28;20619;-71
2021/01/11 02:35:10;;;;;;;35.80;22.37;;;5.40;99.90;;;;;;4992509;28;20635;-71
2021/01/11 02:37:57;;;;;;;32.00;20.40;;;5.50;99.90;;;;;;5008924;28;21053;-71
2021/01/11 02:40:45;;;;;;;30.77;22.33;;;5.40;99.90;;;;;;4983224;28;21220;-71
2021/01/11 02:43:38;;;;;;;30.20;20.80;;;5.40;99.90;;;;;;5003844;28;20951;-71
2021/01/11 02:46:22;;;;;;;35.30;21.77;;;5.30;99.90;;;;;;5008793;28;20722;-71
2021/01/11 02:49:33;;;;;;;34.90;23.67;;;5.30;99.90;;;;;;5008130;28;20674;-71
2021/01/11 02:52:23;;;;;;;36.03;22.20;;;5.40;99.90;;;;;;5001333;28;20631;-71
2021/01/11 02:55:32;;;;;;;37.20;23.03;;;5.40;99.90;;;;;;5003559;28;20775;-71
2021/01/11 02:58:29;;;;;;;37.63;24.27;;;5.40;99.90;;;;;;4993544;28;20679;-71
2021/01/11 03:01:18;;;;;;;40.70;24.80;;;5.30;99.90;;;;;;4980451;28;20688;-71
2021/01/11 03:04:04;;;;;;;36.87;23.73;;;5.40;99.90;;;;;;5002218;28;20663;-71
2021/01/11 03:06:59;;;;;;;34.40;22.87;;;5.30;99.90;;;;;;5002189;28;20658;-71
2021/01/11 03:09:46;;;;;;;39.37;24.40;;;5.30;99.90;;;;;;4993958;28;20683;-71
2021/01/11 03:12:31;;;;;;;37.20;24.20;;;5.30;99.90;;;;;;4997642;28;20615;-71
2021/01/11 03:15:16;;;;;;;38.87;25.03;;;5.30;99.90;;;;;;4988919;28;21075;-71
2021/01/11 03:18:01;;;;;;;39.90;25.67;;;5.30;99.90;;;;;;4998626;28;20603;-71
2021/01/11 03:20:45;;;;;;;36.13;25.20;;;5.30;99.90;;;;;;4990497;28;20694;-71
2021/01/11 03:23:30;;;;;;;38.40;25.37;;;5.30;99.90;;;;;;4991794;28;20666;-72
2021/01/11 03:26:24;;;;;;;43.17;26.97;;;5.30;99.90;;;;;;4994108;28;20794;-71
2021/01/11 03:29:09;;;;;;;42.30;28.17;;;5.20;99.90;;;;;;4997152;28;20618;-71
2021/01/11 03:31:54;;;;;;;43.23;27.80;;;5.30;99.90;;;;;;4994647;28;20659;-71
2021/01/11 03:34:41;;;;;;;43.10;29.07;;;5.30;99.90;;;;;;4989500;28;21186;-71
2021/01/11 03:37:25;;;;;;;44.23;29.10;;;5.20;99.90;;;;;;5014339;28;20730;-71
2021/01/11 03:40:10;;;;;;;46.50;29.07;;;5.10;99.90;;;;;;4988963;28;20642;-71
2021/01/11 03:42:55;;;;;;;41.87;28.27;;;5.10;99.90;;;;;;4992621;28;20646;-71
2021/01/11 03:45:39;;;;;;;47.57;29.03;;;5.10;99.90;;;;;;4990532;28;20643;-71
2021/01/11 03:48:24;;;;;;;50.20;29.73;;;5.10;99.90;;;;;;5002745;28;20936;-71
2021/01/11 03:51:09;;;;;;;41.37;28.33;;;5.10;99.90;;;;;;4987650;28;20663;-71
2021/01/11 03:53:54;;;;;;;43.20;28.00;;;5.10;99.90;;;;;;4991874;28;20680;-71
2021/01/11 03:56:38;;;;;;;42.37;28.47;;;5.00;99.90;;;;;;4992571;28;20652;-71
2021/01/11 03:59:23;;;;;;;45.23;27.20;;;5.00;99.90;;;;;;4991737;28;20620;-71
2021/01/11 04:02:08;;;;;;;46.23;28.87;;;5.00;99.90;;;;;;4991655;28;20938;-71
2021/01/11 04:04:54;;;;;;;47.20;27.23;;;5.00;99.90;;;;;;4999119;28;21246;-71
2021/01/11 04:07:39;;;;;;;41.93;27.23;;;5.00;99.90;;;;;;5003889;28;20654;-72
2021/01/11 04:10:26;;;;;;;45.80;28.30;;;5.00;99.90;;;;;;4990428;28;20623;-71
2021/01/11 04:13:10;;;;;;;40.80;26.10;;;5.10;99.90;;;;;;5006192;28;20614;-71
2021/01/11 04:15:57;;;;;;;44.77;26.57;;;5.10;99.90;;;;;;5009475;28;20647;-71
2021/01/11 04:18:42;;;;;;;43.20;27.20;;;5.00;99.90;;;;;;4999642;28;20639;-71
2021/01/11 04:21:27;;;;;;;41.33;25.63;;;4.90;99.90;;;;;;4997677;28;21469;-71
2021/01/11 04:24:11;;;;;;;40.70;26.83;;;5.00;99.90;;;;;;4985454;28;20889;-68
2021/01/11 04:26:56;;;;;;;38.37;25.77;;;5.00;99.90;;;;;;4992952;28;20644;-69
2021/01/11 04:29:40;;;;;;;40.27;24.93;;;4.90;99.90;;;;;;4992618;28;20679;-68
2021/01/11 04:32:25;;;;;;;41.10;24.50;;;4.90;99.90;;;;;;5004210;28;20937;-69
2021/01/11 04:35:12;;;;;;;36.13;25.03;;;4.80;99.90;;;;;;4988324;28;20702;-69
2021/01/11 04:37:57;;;;;;;36.30;24.40;;;4.90;99.90;;;;;;4989484;28;20798;-69
2021/01/11 04:40:41;;;;;;;36.80;25.20;;;4.90;99.90;;;;;;4988089;28;20631;-69
2021/01/11 04:43:28;;;;;;;41.97;27.07;;;4.90;99.90;;;;;;4987758;28;20623;-69
2021/01/11 04:46:15;;;;;;;38.70;25.20;;;4.90;99.90;;;;;;4997064;28;21105;-68
2021/01/11 04:49:00;;;;;;;37.53;24.70;;;4.90;99.90;;;;;;5003553;28;20627;-69
2021/01/11 04:51:45;;;;;;;38.60;25.40;;;4.90;99.90;;;;;;4998512;28;20619;-69
2021/01/11 04:54:31;;;;;;;41.23;27.40;;;5.00;99.90;;;;;;4990189;28;20624;-69
2021/01/11 04:57:16;;;;;;;41.50;27.00;;;5.00;99.90;;;;;;4989890;28;21010;-69
2021/01/11 05:00:09;;;;;;;44.97;26.80;;;4.90;99.90;;;;;;4981492;28;21305;-69
2021/01/11 05:03:04;;;;;;;43.77;25.80;;;4.90;99.90;;;;;;5005726;28;20623;-69
2021/01/11 05:05:49;;;;;;;42.07;25.87;;;4.90;99.90;;;;;;4996252;28;21160;-69
2021/01/11 05:08:33;;;;;;;47.13;28.60;;;5.00;99.90;;;;;;5001390;28;20625;-69
2021/01/11 05:11:18;;;;;;;43.60;26.87;;;4.90;99.90;;;;;;5001032;28;20623;-68
2021/01/11 05:14:02;;;;;;;41.17;26.07;;;4.90;99.90;;;;;;4997151;28;20679;-68
2021/01/11 05:17:06;;;;;;;39.63;26.47;;;5.00;99.90;;;;;;4985761;28;20646;-68
2021/01/11 05:20:05;;;;;;;41.20;27.77;;;4.90;99.90;;;;;;4999477;28;21145;-68
2021/01/11 05:22:55;;;;;;;41.73;25.43;;;4.90;99.90;;;;;;5007690;28;21369;-69
2021/01/11 05:25:41;;;;;;;42.77;26.70;;;4.90;99.90;;;;;;4992252;28;20702;-69
2021/01/11 05:28:25;;;;;;;42.87;27.30;;;4.90;99.90;;;;;;4991162;28;20623;-69
2021/01/11 05:31:10;;;;;;;42.00;27.23;;;4.90;99.90;;;;;;5006364;28;20600;-69
2021/01/11 05:33:54;;;;;;;39.30;24.70;;;4.90;99.90;;;;;;4991203;28;20974;-69
2021/01/11 05:36:39;;;;;;;38.60;26.40;;;5.00;99.90;;;;;;4996102;28;20657;-69
2021/01/11 05:39:25;;;;;;;41.00;26.90;;;5.00;99.90;;;;;;4989981;28;21185;-69
2021/01/11 05:42:20;;;;;;;42.13;26.83;;;5.00;99.90;;;;;;4983826;28;20627;-69
2021/01/11 05:45:16;;;;;;;39.13;25.83;;;5.00;99.90;;;;;;4983178;28;21341;-68
2021/01/11 05:48:06;;;;;;;43.50;27.70;;;5.10;99.90;;;;;;4987287;28;20703;-69
2021/01/11 05:50:50;;;;;;;45.37;26.57;;;5.10;99.90;;;;;;4986759;28;20632;-69
2021/01/11 05:53:40;;;;;;;43.47;28.33;;;5.10;99.90;;;;;;5000544;28;20620;-69
2021/01/11 05:56:25;;;;;;;41.03;25.53;;;5.10;99.90;;;;;;4980140;28;20706;-68
2021/01/11 05:59:10;;;;;;;42.67;27.50;;;5.00;99.90;;;;;;4991218;28;20744;-69
2021/01/11 06:02:00;;;;;;;39.10;25.50;;;5.10;99.90;;;;;;4986354;28;20671;-68
2021/01/11 06:04:45;;;;;;;41.13;26.03;;;5.10;99.90;;;;;;4985163;28;20655;-70
2021/01/11 06:07:29;;;;;;;40.30;26.00;;;5.10;99.90;;;;;;4990768;28;20652;-69
2021/01/11 06:10:15;;;;;;;39.00;25.60;;;5.00;99.90;;;;;;4990066;28;20623;-69
2021/01/11 06:13:00;;;;;;;37.70;23.73;;;4.90;99.90;;;;;;4982873;28;21216;-69
2021/01/11 06:15:45;;;;;;;40.97;25.33;;;4.90;99.90;;;;;;4965612;28;21093;-69
2021/01/11 06:18:30;;;;;;;32.03;22.93;;;4.90;99.90;;;;;;4999081;28;20839;-69
2021/01/11 06:21:16;;;;;;;34.20;24.10;;;4.90;99.90;;;;;;5002150;28;20686;-69
2021/01/11 06:24:35;;;;;;;35.57;23.17;;;4.90;99.90;;;;;;4984819;28;20652;-69
2021/01/11 06:27:20;;;;;;;31.80;20.83;;;4.90;99.90;;;;;;4982871;28;20746;-69
2021/01/11 06:30:05;;;;;;;30.33;20.50;;;4.90;99.90;;;;;;4985676;28;20643;-68
2021/01/11 06:32:52;;;;;;;29.80;19.87;;;4.90;99.90;;;;;;4966770;28;21429;-69
2021/01/11 06:35:46;;;;;;;28.10;20.17;;;4.90;99.90;;;;;;4965028;28;21834;-69
2021/01/11 06:38:32;;;;;;;29.93;20.33;;;5.00;99.90;;;;;;4963267;28;21517;-68
2021/01/11 06:41:21;;;;;;;25.67;17.63;;;4.90;99.90;;;;;;4964215;28;21599;-68
2021/01/11 06:44:09;;;;;;;25.53;17.10;;;4.90;99.90;;;;;;4960149;28;20662;-69
2021/01/11 06:46:55;;;;;;;23.13;17.10;;;4.80;99.90;;;;;;4982312;23;21594;-63
2021/01/11 06:49:52;;;;;;;22.77;16.37;;;4.80;99.90;;;;;;4947483;28;21432;-65
2021/01/11 06:52:38;;;;;;;23.40;16.13;;;4.80;99.90;;;;;;4961382;28;20628;-65
2021/01/11 06:55:24;;;;;;;19.33;14.77;;;4.80;99.90;;;;;;4940492;28;20643;-64
2021/01/11 06:58:09;;;;;;;19.17;14.13;;;4.80;99.90;;;;;;4968964;28;20706;-66
2021/01/11 07:01:02;;;;;;;19.60;15.57;;;4.90;99.90;;;;;;4983461;28;20647;-67
2021/01/11 07:03:52;;;;;;;19.50;14.60;;;4.80;99.90;;;;;;4957999;28;20771;-69
2021/01/11 07:06:43;;;;;;;17.93;13.83;;;4.80;99.90;;;;;;4971242;28;20663;-68
2021/01/11 07:09:29;;;;;;;18.37;14.50;;;4.90;99.90;;;;;;4961716;28;20679;-71
2021/01/11 07:12:22;;;;;;;17.60;13.73;;;4.90;99.90;;;;;;4946776;28;21214;-70
2021/01/11 07:15:17;;;;;;;17.53;13.20;;;4.80;99.90;;;;;;4951664;28;20625;-71
2021/01/11 07:18:04;;;;;;;19.83;14.33;;;4.90;99.90;;;;;;4926258;28;20751;-72
2021/01/11 07:20:51;;;;;;;19.17;14.23;;;4.80;99.90;;;;;;4948743;28;21613;-70
2021/01/11 07:23:39;;;;;;;17.63;13.60;;;4.80;99.90;;;;;;4941779;28;20709;-70
2021/01/11 07:26:26;;;;;;;17.83;13.83;;;4.80;99.90;;;;;;4930270;28;20792;-72
2021/01/11 07:29:17;;;;;;;15.70;12.90;;;4.80;99.90;;;;;;4945256;28;20870;-72
2021/01/11 07:32:02;;;;;;;18.27;13.93;;;4.80;99.90;;;;;;4947118;28;20672;-69
2021/01/11 07:34:46;;;;;;;18.20;13.93;;;4.80;99.90;;;;;;4937255;28;20810;-71
2021/01/11 07:37:31;;;;;;;15.27;12.53;;;4.60;99.90;;;;;;4938171;28;20668;-68
2021/01/11 07:40:16;;;;;;;19.20;14.10;;;4.60;99.90;;;;;;4937838;28;20636;-72
2021/01/11 07:43:03;;;;;;;17.50;12.70;;;4.60;99.90;;;;;;4937799;28;20727;-72
2021/01/11 07:45:48;;;;;;;19.97;13.17;;;4.60;99.90;;;;;;4947943;28;20715;-71
2021/01/11 07:48:34;;;;;;;18.97;14.07;;;4.50;99.90;;;;;;4934339;28;21259;-71
2021/01/11 07:51:23;;;;;;;19.33;14.07;;;4.60;99.90;;;;;;4945497;28;21008;-72
2021/01/11 07:54:17;;;;;;;19.97;14.97;;;4.60;99.90;;;;;;4951133;28;21726;-69
2021/01/11 07:57:07;;;;;;;19.70;14.67;;;4.50;99.90;;;;;;4950418;28;20703;-71
2021/01/11 08:00:04;;;;;;;20.90;13.80;;;4.50;99.90;;;;;;4919241;28;21644;-69
2021/01/11 08:02:52;;;;;;;17.77;13.33;;;4.60;99.90;;;;;;4946747;28;20715;-69
2021/01/11 08:05:37;;;;;;;21.30;14.30;;;4.40;99.90;;;;;;4955763;28;20716;-72
2021/01/11 08:08:23;;;;;;;19.30;14.47;;;4.40;99.90;;;;;;4949574;28;20724;-71
2021/01/11 08:11:07;;;;;;;19.10;14.63;;;4.30;99.90;;;;;;4950727;28;20632;-69
2021/01/11 08:13:52;;;;;;;20.87;15.00;;;4.40;99.90;;;;;;4876876;28;20625;-68
2021/01/11 08:16:39;;;;;;;19.93;14.63;;;4.40;99.90;;;;;;4992400;28;20718;-69
2021/01/11 08:19:24;;;;;;;18.30;14.13;;;4.40;99.90;;;;;;4953671;28;20750;-70
2021/01/11 08:22:10;;;;;;;17.43;14.47;;;4.40;99.90;;;;;;4934977;28;20675;-71
2021/01/11 08:24:56;;;;;;;20.10;14.90;;;4.40;99.90;;;;;;4958172;28;20774;-71
2021/01/11 08:27:49;;;;;;;18.23;14.77;;;4.30;99.90;;;;;;4955740;28;20659;-68
2021/01/11 08:30:34;;;;;;;18.90;14.70;;;4.40;99.90;;;;;;4938547;28;20660;-71
2021/01/11 08:33:19;;;;;;;20.77;15.37;;;4.20;99.90;;;;;;4901628;28;20637;-70
2021/01/11 08:36:21;;;;;;;19.73;14.60;;;4.20;99.90;;;;;;4970945;28;20719;-68
2021/01/11 08:39:09;;;;;;;20.87;15.37;;;4.20;99.90;;;;;;4943338;28;20636;-71
2021/01/11 08:41:54;;;;;;;21.27;15.83;;;4.20;99.90;;;;;;4985915;28;20632;-69
2021/01/11 08:44:41;;;;;;;21.63;15.90;;;4.30;99.90;;;;;;4942373;28;20660;-68
2021/01/11 08:47:32;;;;;;;18.43;14.73;;;4.30;99.90;;;;;;4891069;28;20669;-67
2021/01/11 08:50:16;;;;;;;17.17;13.60;;;4.30;99.90;;;;;;4963731;28;20872;-69
2021/01/11 08:53:38;;;;;;;19.90;15.10;;;4.30;99.90;;;;;;4942368;28;20612;-68
2021/01/11 08:56:28;;;;;;;21.03;15.20;;;4.30;99.90;;;;;;4921742;29;20663;-70
2021/01/11 08:59:17;;;;;;;19.87;15.50;;;4.30;99.90;;;;;;4943636;28;20609;-68
2021/01/11 09:02:02;;;;;;;21.77;15.83;;;4.30;99.90;;;;;;4976234;28;20856;-68
2021/01/11 09:04:47;;;;;;;22.63;15.97;;;4.20;99.90;;;;;;4981260;28;20660;-67
2021/01/11 09:07:33;;;;;;;22.17;17.00;;;4.30;99.90;;;;;;4959376;28;20708;-67
2021/01/11 09:10:19;;;;;;;26.10;18.70;;;4.20;99.90;;;;;;4965227;28;21307;-68
2021/01/11 09:13:20;;;;;;;24.17;17.37;;;4.30;99.90;;;;;;4973986;28;20636;-69
2021/01/11 09:16:15;;;;;;;23.53;17.87;;;4.30;99.90;;;;;;4948523;28;20667;-70
2021/01/11 09:19:10;;;;;;;28.80;18.77;;;4.30;99.90;;;;;;4885720;28;20637;-68
2021/01/11 09:22:06;;;;;;;28.17;19.37;;;4.30;99.90;;;;;;4944502;28;20727;-69
2021/01/11 09:24:50;;;;;;;24.60;18.33;;;4.20;99.90;;;;;;4932163;28;20700;-67
2021/01/11 09:27:37;;;;;;;26.80;19.23;;;4.20;99.90;;;;;;4942972;28;20664;-71
2021/01/11 09:30:22;;;;;;;30.57;20.77;;;4.30;99.90;;;;;;4976214;28;20632;-68
2021/01/11 09:33:07;;;;;;;33.53;22.20;;;4.30;99.90;;;;;;4980245;28;21190;-68
2021/01/11 09:35:52;;;;;;;32.47;20.90;;;4.30;99.90;;;;;;4982711;28;20756;-68
2021/01/11 09:38:37;;;;;;;32.87;21.40;;;4.40;99.90;;;;;;4967156;28;20596;-71
2021/01/11 09:41:21;;;;;;;34.27;21.43;;;4.30;99.90;;;;;;4978557;28;21177;-70
2021/01/11 09:44:06;;;;;;;31.10;20.63;;;4.30;99.90;;;;;;4975100;28;21036;-69
2021/01/11 09:46:55;;;;;;;30.30;22.13;;;4.40;99.90;;;;;;4958100;28;20970;-70
2021/01/11 09:49:40;;;;;;;33.53;22.03;;;4.40;99.90;;;;;;4969506;28;20584;-69
2021/01/11 09:52:24;;;;;;;35.13;23.27;;;4.50;99.90;;;;;;4966402;28;20748;-68
2021/01/11 09:55:10;;;;;;;35.63;23.37;;;4.40;99.90;;;;;;4963544;28;20611;-68
2021/01/11 09:57:55;;;;;;;37.60;23.80;;;4.40;99.90;;;;;;4984132;28;20745;-68
2021/01/11 10:00:40;;;;;;;34.70;23.40;;;4.40;99.90;;;;;;4971321;28;21150;-72
2021/01/11 10:03:24;;;;;;;33.33;22.33;;;4.30;99.90;;;;;;4980645;28;20588;-68
2021/01/11 10:06:09;;;;;;;37.60;23.10;;;4.40;99.90;;;;;;4947108;28;20731;-70
2021/01/11 10:08:54;;;;;;;34.03;20.67;;;4.30;99.90;;;;;;4952380;28;20644;-69
2021/01/11 10:11:39;;;;;;;32.73;20.47;;;4.40;99.90;;;;;;4962344;28;21265;-71
2021/01/11 10:14:25;;;;;;;35.90;21.43;;;4.40;99.90;;;;;;4978192;28;20616;-67
2021/01/11 10:17:09;;;;;;;32.13;20.70;;;4.40;99.90;;;;;;4964470;28;20659;-69
2021/01/11 10:19:54;;;;;;;35.60;19.97;;;4.40;99.90;;;;;;4984218;28;20593;-66
2021/01/11 10:22:39;;;;;;;34.13;20.87;;;4.40;99.90;;;;;;4968549;28;20624;-69
2021/01/11 10:25:24;;;;;;;34.10;20.83;;;4.30;99.90;;;;;;4970001;28;21249;-67
2021/01/11 10:28:08;;;;;;;33.37;20.63;;;4.30;99.90;;;;;;4966965;28;21013;-68
2021/01/11 10:30:54;;;;;;;34.20;20.37;;;4.30;99.90;;;;;;4967829;28;20902;-70
2021/01/11 10:33:39;;;;;;;35.07;22.07;;;4.40;99.90;;;;;;4964003;28;20596;-68
2021/01/11 10:36:23;;;;;;;29.50;19.17;;;4.40;99.90;;;;;;4951974;28;20675;-69
2021/01/11 10:39:09;;;;;;;29.13;17.60;;;4.40;99.90;;;;;;4965207;28;20609;-68
2021/01/11 10:41:56;;;;;;;34.97;20.33;;;4.30;99.90;;;;;;4952254;28;21150;-70
2021/01/11 10:44:41;;;;;;;34.70;20.10;;;4.30;99.90;;;;;;4911116;28;20745;-70
2021/01/11 10:47:25;;;;;;;28.27;18.73;;;4.20;99.90;;;;;;4975691;28;20807;-67
2021/01/11 10:50:10;;;;;;;31.47;19.87;;;4.20;99.90;;;;;;4968780;28;20597;-68
2021/01/11 10:52:55;;;;;;;30.23;18.63;;;4.20;99.90;;;;;;4973658;28;21269;-70
2021/01/11 10:55:39;;;;;;;30.27;18.40;;;4.20;99.90;;;;;;4982104;28;20943;-66
2021/01/11 10:58:24;;;;;;;31.90;18.37;;;4.20;99.90;;;;;;4978303;28;20584;-68
2021/01/11 11:01:11;;;;;;;31.27;19.07;;;4.30;99.90;;;;;;4969146;28;20585;-69
2021/01/11 11:03:56;;;;;;;30.47;18.40;;;4.30;99.90;;;;;;4976917;28;20618;-67
2021/01/11 11:06:40;;;;;;;33.40;18.17;;;4.30;99.90;;;;;;4976111;28;20683;-67
2021/01/11 11:09:25;;;;;;;26.43;17.50;;;4.30;99.90;;;;;;4985961;28;21366;-67
2021/01/11 11:12:09;;;;;;;24.60;16.00;;;4.30;99.90;;;;;;4976302;28;20665;-69
2021/01/11 11:14:54;;;;;;;26.70;15.87;;;4.20;99.90;;;;;;4975988;28;20620;-67
2021/01/11 11:17:38;;;;;;;28.20;17.20;;;4.20;99.90;;;;;;4975004;28;21259;-68
2021/01/11 11:20:23;;;;;;;23.50;16.17;;;4.20;99.90;;;;;;4987073;28;20641;-71
2021/01/11 11:23:07;;;;;;;25.63;15.53;;;4.20;99.90;;;;;;4972741;28;20588;-68
2021/01/11 11:25:52;;;;;;;24.10;14.83;;;4.30;99.90;;;;;;4982985;28;21207;-68
2021/01/11 11:28:37;;;;;;;22.03;14.47;;;4.20;99.90;;;;;;4971635;28;20640;-68
2021/01/11 11:31:22;;;;;;;26.70;15.43;;;4.20;99.90;;;;;;4994113;28;20596;-68
2021/01/11 11:34:07;;;;;;;25.37;15.57;;;4.30;99.90;;;;;;4966722;28;20632;-68
2021/01/11 11:36:55;;;;;;;23.70;14.30;;;4.30;99.90;;;;;;4941209;28;21775;-70
2021/01/11 11:39:40;;;;;;;23.27;16.30;;;4.30;99.90;;;;;;4969741;28;20652;-70
2021/01/11 11:42:24;;;;;;;21.30;15.27;;;4.20;99.90;;;;;;4942803;28;20589;-68
2021/01/11 11:45:13;;;;;;;22.57;14.73;;;4.20;99.90;;;;;;4907991;28;20624;-68
2021/01/11 11:47:58;;;;;;;24.10;15.50;;;4.30;99.90;;;;;;4975372;28;20911;-71
2021/01/11 11:50:43;;;;;;;21.23;14.57;;;4.30;99.90;;;;;;4971785;28;20648;-69
2021/01/11 11:53:30;;;;;;;25.07;15.87;;;4.30;99.90;;;;;;4969654;28;21212;-69
2021/01/11 11:56:14;;;;;;;21.20;14.17;;;4.30;99.90;;;;;;4987541;28;20703;-68
2021/01/11 11:59:05;;;;;;;20.77;14.60;;;4.30;99.90;;;;;;4987161;28;20612;-67
2021/01/11 12:01:49;;;;;;;24.37;16.53;;;4.30;99.90;;;;;;4975106;28;20636;-68
2021/01/11 12:04:33;;;;;;;25.93;15.97;;;4.20;99.90;;;;;;4969462;28;21190;-69
2021/01/11 12:07:19;;;;;;;23.07;15.00;;;4.20;99.90;;;;;;4974490;28;21258;-69
2021/01/11 12:10:05;;;;;;;21.37;15.10;;;4.20;99.90;;;;;;4953362;28;20957;-69
2021/01/11 12:12:50;;;;;;;24.30;15.67;;;4.20;99.90;;;;;;4949901;28;20689;-69
2021/01/11 12:15:34;;;;;;;24.60;17.00;;;4.20;99.90;;;;;;4947361;28;20902;-68
2021/01/11 12:18:20;;;;;;;26.90;17.30;;;4.10;99.90;;;;;;4958403;28;20700;-69
2021/01/11 12:21:05;;;;;;;25.73;17.07;;;4.10;99.90;;;;;;4947684;28;20680;-69
2021/01/11 12:23:49;;;;;;;24.00;17.00;;;4.10;99.90;;;;;;4953619;28;20587;-70
2021/01/11 12:26:45;;;;;;;26.87;17.57;;;4.10;99.90;;;;;;4942865;28;21231;-69
2021/01/11 12:29:29;;;;;;;24.37;17.23;;;4.10;99.90;;;;;;4943083;28;20676;-69
2021/01/11 12:32:14;;;;;;;27.60;17.97;;;4.10;99.90;;;;;;4953204;28;20722;-69
2021/01/11 12:34:59;;;;;;;28.17;19.50;;;4.20;99.90;;;;;;4984831;28;20636;-69
2021/01/11 12:37:44;;;;;;;23.77;18.07;;;4.10;99.90;;;;;;4991027;28;20648;-69
2021/01/11 12:40:28;;;;;;;28.27;18.63;;;4.10;99.90;;;;;;4965499;28;20788;-69
2021/01/11 12:43:13;;;;;;;27.03;18.10;;;4.10;99.90;;;;;;4968397;28;20684;-70
2021/01/11 12:45:57;;;;;;;29.93;20.70;;;4.10;99.90;;;;;;4970104;28;20628;-69
2021/01/11 12:48:42;;;;;;;29.40;20.20;;;4.10;99.90;;;;;;4985019;22;21165;-71
2021/01/11 12:51:27;;;;;;;29.80;19.70;;;4.10;99.90;;;;;;5037715;28;21052;-70
2021/01/11 12:54:12;;;;;;;30.87;21.57;;;4.10;99.90;;;;;;5015234;28;20630;-70
2021/01/11 12:56:57;;;;;;;31.33;21.50;;;4.10;99.90;;;;;;5043593;28;20590;-70
2021/01/11 12:59:42;;;;;;;35.73;24.37;;;4.20;99.90;;;;;;5039461;28;20641;-72
2021/01/11 13:02:26;;;;;;;33.43;21.10;;;4.10;99.90;;;;;;4998932;28;20720;-72
2021/01/11 13:05:11;;;;;;;33.70;21.27;;;4.10;99.90;;;;;;4990437;28;20810;-70
2021/01/11 13:07:56;;;;;;;31.43;20.57;;;4.10;99.90;;;;;;5011944;28;20779;-72
2021/01/11 13:10:42;;;;;;;29.57;19.73;;;4.20;99.90;;;;;;4990980;28;21428;-71
2021/01/11 13:13:27;;;;;;;31.33;21.03;;;4.20;99.90;;;;;;5023068;28;20950;-70
2021/01/11 13:16:21;;;;;;;29.33;19.60;;;4.20;99.90;;;;;;5034583;28;20691;-70
2021/01/11 13:19:07;;;;;;;24.60;18.43;;;4.20;99.90;;;;;;5025223;28;20732;-71
2021/01/11 13:21:51;;;;;;;28.37;19.10;;;4.20;99.90;;;;;;5023055;28;20637;-73
2021/01/11 13:24:35;;;;;;;24.97;17.10;;;4.20;99.90;;;;;;4993860;28;20612;-69
2021/01/11 13:27:20;;;;;;;27.93;18.60;;;4.30;99.90;;;;;;4991613;28;20706;-70
2021/01/11 13:30:05;;;;;;;28.93;18.50;;;4.40;99.90;;;;;;4981969;28;21248;-71
2021/01/11 13:32:53;;;;;;;26.70;18.17;;;4.40;99.90;;;;;;4994167;28;20765;-70
2021/01/11 13:35:38;;;;;;;25.07;18.30;;;4.40;99.90;;;;;;4968422;28;20614;-71
2021/01/11 13:38:24;;;;;;;26.07;18.60;;;4.30;99.90;;;;;;5024313;28;20672;-69
2021/01/11 13:41:08;;;;;;;26.77;18.43;;;4.30;99.90;;;;;;5009749;28;20638;-70
2021/01/11 13:43:53;;;;;;;24.80;17.50;;;4.40;99.90;;;;;;5033986;28;20618;-70
2021/01/11 13:46:42;;;;;;;26.17;18.50;;;4.40;99.90;;;;;;5020930;28;20641;-70
2021/01/11 13:49:27;;;;;;;30.40;19.23;;;4.40;99.90;;;;;;5028120;28;20674;-70
2021/01/11 13:52:13;;;;;;;27.00;17.90;;;4.40;99.90;;;;;;5014231;28;20629;-68
2021/01/11 13:54:57;;;;;;;26.30;18.60;;;4.40;99.90;;;;;;5013694;28;20977;-69
2021/01/11 13:57:42;;;;;;;26.30;18.50;;;4.40;99.90;;;;;;5016905;28;20617;-70
2021/01/11 14:00:30;;;;;;;27.57;18.20;;;4.40;99.90;;;;;;5013405;28;21273;-69
2021/01/11 14:03:14;;;;;;;26.70;19.50;;;4.50;99.90;;;;;;5022467;28;20618;-70
2021/01/11 14:05:59;;;;;;;31.80;20.20;;;4.40;99.90;;;;;;5005961;28;20724;-69
2021/01/11 14:08:46;;;;;;;31.43;19.57;;;4.40;99.90;;;;;;5032629;28;20653;-69
2021/01/11 14:11:31;;;;;;;28.70;19.60;;;4.40;99.90;;;;;;5035647;28;20638;-69
2021/01/11 14:14:17;;;;;;;31.17;18.07;;;4.40;99.90;;;;;;5025634;28;20633;-69
2021/01/11 14:17:01;;;;;;;25.30;18.07;;;4.30;99.90;;;;;;5025505;28;21203;-69
2021/01/11 14:19:45;;;;;;;29.70;18.90;;;4.30;99.90;;;;;;5034540;28;20688;-69